DXX0465 EKCH-LEAL
Flight info
| Callsign | DXX0465 |
|---|---|
| Flight time | 3h 10m |
| Altitude | 32000 |
| Route | NEXEN T503 MICOS DCT BASUM DCT MISGO DCT RASCA DCT FAMEN/N0455F330 DCT AHVEC DCT RESMI DCT DEKOD DCT DISAK DCT DIRMO DCT GUERE DCT AGN DCT ANETO DCT POSSY DCT XIMPE DCT RIMES DCT SAURA DCT TATOS DCT PLANA DCT VLC |
| Aircraft | A321/M-SDE3FGHIRWY/LB1 |
Departure
| Time | 2026-05-03 22:11 |
|---|---|
| Airport | Copenhagen Kastrup Airport (EKCH) |
Arrival
| Time | 2026-05-04 01:21 |
|---|---|
| Airport | Alicante-Elche Miguel Hernández Airport (LEAL) |
| Time | Latitude | Longitude | Altitude | Speed | Heading |
|---|---|---|---|---|---|
| 2026-05-03 21:38 | 55.62894 | 12.63873 | 26 ft | 0 kts | 12° |
| 2026-05-03 21:59 | 55.62884 | 12.63869 | 26 ft | 3 kts | 11° |
| 2026-05-03 21:59 | 55.62858 | 12.63860 | 26 ft | 3 kts | 14° |
| 2026-05-03 22:00 | 55.62840 | 12.63837 | 26 ft | 1 kts | 62° |
| 2026-05-03 22:00 | 55.62839 | 12.63836 | 26 ft | 0 kts | 62° |
| 2026-05-03 22:03 | 55.62839 | 12.63837 | 26 ft | 0 kts | 61° |
| 2026-05-03 22:06 | 55.62842 | 12.63847 | 25 ft | 5 kts | 70° |
| 2026-05-03 22:06 | 55.62814 | 12.63946 | 26 ft | 11 kts | 160° |
| 2026-05-03 22:07 | 55.62735 | 12.63911 | 26 ft | 12 kts | 210° |
| 2026-05-03 22:07 | 55.62654 | 12.63881 | 26 ft | 12 kts | 154° |
| 2026-05-03 22:07 | 55.62594 | 12.63998 | 25 ft | 13 kts | 122° |
| 2026-05-03 22:07 | 55.62544 | 12.64141 | 25 ft | 13 kts | 122° |
| 2026-05-03 22:08 | 55.62492 | 12.64287 | 26 ft | 14 kts | 123° |
| 2026-05-03 22:08 | 55.62430 | 12.64425 | 26 ft | 14 kts | 143° |
| 2026-05-03 22:08 | 55.62334 | 12.64408 | 25 ft | 14 kts | 201° |
| 2026-05-03 22:08 | 55.62236 | 12.64348 | 25 ft | 15 kts | 196° |
| 2026-05-03 22:09 | 55.62138 | 12.64289 | 26 ft | 14 kts | 200° |
| 2026-05-03 22:09 | 55.62044 | 12.64215 | 26 ft | 14 kts | 206° |
| 2026-05-03 22:09 | 55.61949 | 12.64132 | 25 ft | 15 kts | 206° |
| 2026-05-03 22:10 | 55.61731 | 12.64085 | 24 ft | 16 kts | 178° |
| 2026-05-03 22:10 | 55.61623 | 12.64033 | 23 ft | 16 kts | 212° |
| 2026-05-03 22:10 | 55.61476 | 12.63831 | 23 ft | 54 kts | 221° |
| 2026-05-03 22:10 | 55.61024 | 12.63135 | 18 ft | 117 kts | 221° |
| 2026-05-03 22:11 | 55.60258 | 12.61962 | 26 ft | 171 kts | 222° |
| 2026-05-03 22:11 | 55.59324 | 12.60517 | 479 ft | 180 kts | 223° |
| 2026-05-03 22:11 | 55.58412 | 12.59079 | 1176 ft | 177 kts | 223° |
| 2026-05-03 22:11 | 55.57417 | 12.57853 | 1797 ft | 179 kts | 215° |
| 2026-05-03 22:12 | 55.56328 | 12.56628 | 2221 ft | 192 kts | 216° |
| 2026-05-03 22:12 | 55.55145 | 12.55327 | 2591 ft | 209 kts | 213° |
| 2026-05-03 22:12 | 55.53875 | 12.53912 | 2892 ft | 229 kts | 217° |
| 2026-05-03 22:12 | 55.52506 | 12.52272 | 3321 ft | 247 kts | 217° |
| 2026-05-03 22:13 | 55.51074 | 12.50527 | 3996 ft | 253 kts | 218° |
| 2026-05-03 22:13 | 55.49645 | 12.48768 | 4804 ft | 253 kts | 218° |
| 2026-05-03 22:13 | 55.48214 | 12.46991 | 5597 ft | 253 kts | 218° |
| 2026-05-03 22:13 | 55.46787 | 12.45213 | 6316 ft | 254 kts | 218° |
| 2026-05-03 22:14 | 55.45363 | 12.43437 | 6993 ft | 255 kts | 219° |
| 2026-05-03 22:14 | 55.43918 | 12.41628 | 7632 ft | 256 kts | 219° |
| 2026-05-03 22:14 | 55.42467 | 12.39811 | 8226 ft | 258 kts | 218° |
| 2026-05-03 22:14 | 55.41005 | 12.37983 | 8824 ft | 260 kts | 218° |
| 2026-05-03 22:15 | 55.39543 | 12.36159 | 9385 ft | 262 kts | 218° |
| 2026-05-03 22:15 | 55.38053 | 12.34298 | 9928 ft | 264 kts | 218° |
| 2026-05-03 22:15 | 55.36548 | 12.32421 | 10361 ft | 270 kts | 218° |
| 2026-05-03 22:15 | 55.34977 | 12.30461 | 10605 ft | 284 kts | 217° |
| 2026-05-03 22:16 | 55.33350 | 12.28433 | 10851 ft | 296 kts | 217° |
| 2026-05-03 22:16 | 55.31643 | 12.26309 | 11088 ft | 309 kts | 217° |
| 2026-05-03 22:16 | 55.29845 | 12.24075 | 11314 ft | 321 kts | 217° |
| 2026-05-03 22:16 | 55.28011 | 12.21800 | 11566 ft | 332 kts | 217° |
| 2026-05-03 22:17 | 55.26116 | 12.19455 | 12024 ft | 336 kts | 217° |
| 2026-05-03 22:17 | 55.24215 | 12.17107 | 12537 ft | 337 kts | 217° |
| 2026-05-03 22:17 | 55.22296 | 12.14737 | 13021 ft | 340 kts | 217° |
| 2026-05-03 22:17 | 55.20356 | 12.12344 | 13477 ft | 342 kts | 217° |
| 2026-05-03 22:18 | 55.18427 | 12.09901 | 13954 ft | 344 kts | 218° |
| 2026-05-03 22:18 | 55.16489 | 12.07411 | 14399 ft | 347 kts | 218° |
| 2026-05-03 22:18 | 55.14561 | 12.04935 | 14841 ft | 350 kts | 218° |
| 2026-05-03 22:18 | 55.12602 | 12.02423 | 15284 ft | 352 kts | 218° |
| 2026-05-03 22:19 | 55.10619 | 11.99886 | 15713 ft | 355 kts | 217° |
| 2026-05-03 22:19 | 55.08615 | 11.97329 | 16135 ft | 357 kts | 217° |
| 2026-05-03 22:19 | 55.06623 | 11.94791 | 16551 ft | 359 kts | 217° |
| 2026-05-03 22:19 | 55.04607 | 11.92226 | 16944 ft | 362 kts | 217° |
| 2026-05-03 22:20 | 55.02553 | 11.89619 | 17343 ft | 365 kts | 217° |
| 2026-05-03 22:20 | 55.00500 | 11.87014 | 17732 ft | 367 kts | 217° |
| 2026-05-03 22:20 | 54.98432 | 11.84393 | 18108 ft | 370 kts | 217° |
| 2026-05-03 22:20 | 54.96373 | 11.81788 | 18489 ft | 372 kts | 217° |
| 2026-05-03 22:21 | 54.94285 | 11.79149 | 18865 ft | 374 kts | 217° |
| 2026-05-03 22:21 | 54.92164 | 11.76473 | 19239 ft | 376 kts | 217° |
| 2026-05-03 22:21 | 54.90046 | 11.73805 | 19598 ft | 378 kts | 217° |
| 2026-05-03 22:21 | 54.87936 | 11.71151 | 19954 ft | 380 kts | 217° |
| 2026-05-03 22:22 | 54.85784 | 11.68446 | 20311 ft | 382 kts | 217° |
| 2026-05-03 22:22 | 54.83642 | 11.65759 | 20667 ft | 384 kts | 217° |
| 2026-05-03 22:22 | 54.81486 | 11.63058 | 21016 ft | 386 kts | 217° |
| 2026-05-03 22:22 | 54.79296 | 11.60315 | 21343 ft | 388 kts | 217° |
| 2026-05-03 22:23 | 54.77123 | 11.57596 | 21641 ft | 390 kts | 217° |
| 2026-05-03 22:23 | 54.74926 | 11.54853 | 21957 ft | 392 kts | 217° |
| 2026-05-03 22:23 | 54.72722 | 11.52107 | 22284 ft | 393 kts | 217° |
| 2026-05-03 22:23 | 54.70496 | 11.49336 | 22528 ft | 397 kts | 218° |
| 2026-05-03 22:24 | 54.68236 | 11.46524 | 22642 ft | 403 kts | 218° |
| 2026-05-03 22:24 | 54.65948 | 11.43681 | 22768 ft | 409 kts | 217° |
| 2026-05-03 22:24 | 54.63627 | 11.40803 | 22888 ft | 415 kts | 217° |
| 2026-05-03 22:24 | 54.61280 | 11.37898 | 23002 ft | 421 kts | 217° |
| 2026-05-03 22:25 | 54.58879 | 11.34931 | 23113 ft | 426 kts | 217° |
| 2026-05-03 22:25 | 54.56481 | 11.31971 | 23218 ft | 431 kts | 217° |
| 2026-05-03 22:25 | 54.54012 | 11.28940 | 23329 ft | 436 kts | 216° |
| 2026-05-03 22:25 | 54.51536 | 11.25922 | 23439 ft | 441 kts | 216° |
| 2026-05-03 22:26 | 54.49021 | 11.22864 | 23546 ft | 445 kts | 216° |
| 2026-05-03 22:26 | 54.46515 | 11.19821 | 23646 ft | 449 kts | 216° |
| 2026-05-03 22:26 | 54.43940 | 11.16697 | 23743 ft | 453 kts | 216° |
| 2026-05-03 22:26 | 54.41368 | 11.13581 | 23840 ft | 457 kts | 216° |
| 2026-05-03 22:27 | 54.38777 | 11.10449 | 23990 ft | 458 kts | 216° |
| 2026-05-03 22:27 | 54.36174 | 11.07306 | 24234 ft | 458 kts | 216° |
| 2026-05-03 22:27 | 54.33604 | 11.04208 | 24514 ft | 456 kts | 216° |
| 2026-05-03 22:27 | 54.31038 | 11.00962 | 24788 ft | 455 kts | 219° |
| 2026-05-03 22:28 | 54.28616 | 10.97577 | 25026 ft | 454 kts | 221° |
| 2026-05-03 22:28 | 54.26268 | 10.94018 | 25268 ft | 453 kts | 223° |
| 2026-05-03 22:28 | 54.23913 | 10.90453 | 25540 ft | 452 kts | 222° |
| 2026-05-03 22:28 | 54.21562 | 10.86908 | 25787 ft | 451 kts | 222° |
| 2026-05-03 22:29 | 54.19209 | 10.83364 | 26026 ft | 451 kts | 222° |
| 2026-05-03 22:29 | 54.16880 | 10.79860 | 26254 ft | 451 kts | 223° |
| 2026-05-03 22:29 | 54.14535 | 10.76335 | 26492 ft | 450 kts | 223° |
| 2026-05-03 22:29 | 54.12185 | 10.72808 | 26729 ft | 449 kts | 223° |
| 2026-05-03 22:30 | 54.09859 | 10.69321 | 26958 ft | 449 kts | 223° |
| 2026-05-03 22:30 | 54.07521 | 10.65820 | 27169 ft | 448 kts | 223° |
| 2026-05-03 22:30 | 54.05201 | 10.62352 | 27376 ft | 448 kts | 223° |
| 2026-05-03 22:30 | 54.02848 | 10.58841 | 27614 ft | 447 kts | 223° |
| 2026-05-03 22:31 | 54.00534 | 10.55392 | 27851 ft | 446 kts | 223° |
| 2026-05-03 22:31 | 53.98196 | 10.51913 | 28060 ft | 446 kts | 223° |
| 2026-05-03 22:31 | 53.95893 | 10.48491 | 28243 ft | 446 kts | 223° |
| 2026-05-03 22:31 | 53.93554 | 10.45021 | 28440 ft | 446 kts | 223° |
| 2026-05-03 22:32 | 53.91224 | 10.41571 | 28646 ft | 445 kts | 223° |
| 2026-05-03 22:32 | 53.88887 | 10.38114 | 28870 ft | 444 kts | 223° |
| 2026-05-03 22:32 | 53.86573 | 10.34698 | 29085 ft | 443 kts | 222° |
| 2026-05-03 22:32 | 53.84283 | 10.31323 | 29289 ft | 443 kts | 222° |
| 2026-05-03 22:33 | 53.81953 | 10.27891 | 29483 ft | 442 kts | 222° |
| 2026-05-03 22:33 | 53.79661 | 10.24521 | 29702 ft | 441 kts | 222° |
| 2026-05-03 22:33 | 53.77357 | 10.21140 | 29907 ft | 440 kts | 222° |
| 2026-05-03 22:33 | 53.75028 | 10.17728 | 30108 ft | 439 kts | 222° |
| 2026-05-03 22:34 | 53.72754 | 10.14400 | 30306 ft | 438 kts | 222° |
| 2026-05-03 22:34 | 53.70453 | 10.11037 | 30511 ft | 437 kts | 222° |
| 2026-05-03 22:34 | 53.68163 | 10.07696 | 30695 ft | 436 kts | 222° |
| 2026-05-03 22:34 | 53.65863 | 10.04343 | 30887 ft | 435 kts | 221° |
| 2026-05-03 22:35 | 53.63591 | 10.01037 | 31042 ft | 435 kts | 221° |
| 2026-05-03 22:35 | 53.61297 | 9.97706 | 31202 ft | 434 kts | 221° |
| 2026-05-03 22:35 | 53.59023 | 9.94409 | 31366 ft | 434 kts | 221° |
| 2026-05-03 22:35 | 53.56749 | 9.91116 | 31509 ft | 433 kts | 221° |
| 2026-05-03 22:36 | 53.54472 | 9.87824 | 31644 ft | 433 kts | 221° |
| 2026-05-03 22:36 | 53.52189 | 9.84527 | 31783 ft | 433 kts | 221° |
| 2026-05-03 22:36 | 53.49927 | 9.81263 | 31938 ft | 432 kts | 221° |
| 2026-05-03 22:36 | 53.47651 | 9.77986 | 32105 ft | 431 kts | 221° |
| 2026-05-03 22:37 | 53.45391 | 9.74736 | 32265 ft | 430 kts | 221° |
| 2026-05-03 22:37 | 53.43102 | 9.71450 | 32402 ft | 430 kts | 221° |
| 2026-05-03 22:37 | 53.40868 | 9.68249 | 32538 ft | 429 kts | 221° |
| 2026-05-03 22:37 | 53.38601 | 9.65003 | 32671 ft | 429 kts | 221° |
| 2026-05-03 22:38 | 53.36332 | 9.61761 | 32801 ft | 428 kts | 221° |
| 2026-05-03 22:38 | 53.34074 | 9.58539 | 32923 ft | 428 kts | 221° |
| 2026-05-03 22:38 | 53.31840 | 9.55354 | 33036 ft | 427 kts | 221° |
| 2026-05-03 22:38 | 53.29574 | 9.52128 | 33145 ft | 427 kts | 221° |
| 2026-05-03 22:39 | 53.27325 | 9.48931 | 33246 ft | 427 kts | 221° |
| 2026-05-03 22:39 | 53.25072 | 9.45734 | 33358 ft | 427 kts | 221° |
| 2026-05-03 22:39 | 53.22801 | 9.42517 | 33481 ft | 426 kts | 221° |
| 2026-05-03 22:39 | 53.20546 | 9.39326 | 33588 ft | 426 kts | 221° |
| 2026-05-03 22:40 | 53.18299 | 9.36153 | 33676 ft | 425 kts | 221° |
| 2026-05-03 22:40 | 53.13797 | 9.29803 | 33896 ft | 424 kts | 220° |
| 2026-05-03 22:40 | 53.11571 | 9.26672 | 34012 ft | 424 kts | 220° |
| 2026-05-03 22:41 | 53.09314 | 9.23500 | 34144 ft | 423 kts | 220° |
| 2026-05-03 22:41 | 53.07068 | 9.20349 | 34287 ft | 421 kts | 220° |
| 2026-05-03 22:41 | 53.04846 | 9.17236 | 34393 ft | 420 kts | 220° |
| 2026-05-03 22:41 | 53.02611 | 9.14109 | 34495 ft | 420 kts | 220° |
| 2026-05-03 22:42 | 53.00407 | 9.11030 | 34586 ft | 419 kts | 220° |
| 2026-05-03 22:42 | 52.95958 | 9.04828 | 34741 ft | 419 kts | 220° |
| 2026-05-03 22:43 | 52.91508 | 8.98642 | 34816 ft | 420 kts | 220° |
| 2026-05-03 22:43 | 52.87034 | 8.92438 | 34908 ft | 420 kts | 220° |
| 2026-05-03 22:44 | 52.82581 | 8.86283 | 35039 ft | 420 kts | 220° |
| 2026-05-03 22:44 | 52.78112 | 8.80124 | 35147 ft | 420 kts | 220° |
| 2026-05-03 22:45 | 52.73683 | 8.73813 | 35264 ft | 420 kts | 222° |
| 2026-05-03 22:45 | 52.69346 | 8.67471 | 35375 ft | 420 kts | 222° |
| 2026-05-03 22:46 | 52.64970 | 8.61104 | 35469 ft | 419 kts | 221° |
| 2026-05-03 22:46 | 52.60619 | 8.54804 | 35557 ft | 419 kts | 222° |
| 2026-05-03 22:47 | 52.56258 | 8.48514 | 35600 ft | 420 kts | 221° |
| 2026-05-03 22:47 | 52.51855 | 8.42180 | 35645 ft | 421 kts | 221° |
| 2026-05-03 22:48 | 52.47477 | 8.35901 | 35710 ft | 421 kts | 221° |
| 2026-05-03 22:48 | 52.43070 | 8.29600 | 35803 ft | 420 kts | 221° |
| 2026-05-03 22:49 | 52.38689 | 8.23353 | 35874 ft | 420 kts | 221° |
| 2026-05-03 22:49 | 52.34297 | 8.17104 | 35939 ft | 420 kts | 221° |
| 2026-05-03 22:50 | 52.29884 | 8.10845 | 35985 ft | 420 kts | 221° |
| 2026-05-03 22:50 | 52.25478 | 8.04612 | 36020 ft | 421 kts | 221° |
| 2026-05-03 22:51 | 52.21056 | 7.98376 | 36069 ft | 421 kts | 221° |
| 2026-05-03 22:51 | 52.16664 | 7.92196 | 36107 ft | 421 kts | 221° |
| 2026-05-03 22:52 | 52.12235 | 7.85981 | 36154 ft | 421 kts | 221° |
| 2026-05-03 22:52 | 52.07830 | 7.79817 | 36218 ft | 420 kts | 221° |
| 2026-05-03 22:53 | 52.03408 | 7.73647 | 36278 ft | 419 kts | 221° |
| 2026-05-03 22:53 | 51.99028 | 7.67551 | 36314 ft | 418 kts | 220° |
| 2026-05-03 22:54 | 51.94613 | 7.61424 | 36338 ft | 418 kts | 220° |
| 2026-05-03 22:54 | 51.90202 | 7.55318 | 36361 ft | 418 kts | 220° |
| 2026-05-03 22:55 | 51.85786 | 7.49224 | 36368 ft | 419 kts | 220° |
| 2026-05-03 22:55 | 51.81356 | 7.43124 | 36420 ft | 419 kts | 220° |
| 2026-05-03 22:56 | 51.76931 | 7.37047 | 36465 ft | 418 kts | 220° |
| 2026-05-03 22:56 | 51.72514 | 7.30999 | 36529 ft | 417 kts | 220° |
| 2026-05-03 22:57 | 51.68090 | 7.24956 | 36580 ft | 417 kts | 220° |
| 2026-05-03 22:57 | 51.63674 | 7.18942 | 36632 ft | 416 kts | 220° |
| 2026-05-03 22:58 | 51.59293 | 7.12988 | 36665 ft | 416 kts | 219° |
| 2026-05-03 22:58 | 51.54889 | 7.07020 | 36697 ft | 415 kts | 219° |
| 2026-05-03 22:59 | 51.50452 | 7.01024 | 36714 ft | 415 kts | 219° |
| 2026-05-03 22:59 | 51.46067 | 6.95115 | 36752 ft | 415 kts | 219° |
| 2026-05-03 23:00 | 51.41656 | 6.89147 | 36760 ft | 415 kts | 221° |
| 2026-05-03 23:00 | 51.37534 | 6.82731 | 36789 ft | 415 kts | 225° |
| 2026-05-03 23:01 | 51.33497 | 6.76096 | 36793 ft | 415 kts | 225° |
| 2026-05-03 23:01 | 51.29496 | 6.69544 | 36813 ft | 415 kts | 225° |
| 2026-05-03 23:02 | 51.25486 | 6.62992 | 36846 ft | 414 kts | 225° |
| 2026-05-03 23:02 | 51.21454 | 6.56416 | 36880 ft | 413 kts | 225° |
| 2026-05-03 23:03 | 51.17448 | 6.49895 | 36877 ft | 413 kts | 225° |
| 2026-05-03 23:03 | 51.13435 | 6.43383 | 36875 ft | 413 kts | 225° |
| 2026-05-03 23:04 | 51.09421 | 6.36888 | 36836 ft | 414 kts | 225° |
| 2026-05-03 23:04 | 51.05382 | 6.30368 | 36885 ft | 413 kts | 224° |
| 2026-05-03 23:05 | 51.01385 | 6.23931 | 36891 ft | 413 kts | 224° |
| 2026-05-03 23:05 | 50.97357 | 6.17460 | 36921 ft | 413 kts | 224° |
| 2026-05-03 23:06 | 50.93321 | 6.10992 | 36920 ft | 413 kts | 224° |
| 2026-05-03 23:06 | 50.89285 | 6.04548 | 36923 ft | 413 kts | 224° |
| 2026-05-03 23:07 | 50.85259 | 5.98133 | 36978 ft | 412 kts | 224° |
| 2026-05-03 23:07 | 50.81257 | 5.91774 | 37060 ft | 411 kts | 224° |
| 2026-05-03 23:08 | 50.77220 | 5.85372 | 37073 ft | 411 kts | 224° |
| 2026-05-03 23:08 | 50.73195 | 5.79010 | 37078 ft | 411 kts | 224° |
| 2026-05-03 23:09 | 50.69158 | 5.72642 | 37101 ft | 410 kts | 224° |
| 2026-05-03 23:09 | 50.65135 | 5.66315 | 37075 ft | 411 kts | 223° |
| 2026-05-03 23:10 | 50.61091 | 5.59971 | 37086 ft | 411 kts | 224° |
| 2026-05-03 23:10 | 50.57043 | 5.53637 | 37084 ft | 411 kts | 224° |
| 2026-05-03 23:11 | 50.53029 | 5.47369 | 37168 ft | 409 kts | 223° |
| 2026-05-03 23:11 | 50.48986 | 5.41074 | 37194 ft | 408 kts | 223° |
| 2026-05-03 23:12 | 50.44982 | 5.34856 | 37173 ft | 408 kts | 223° |
| 2026-05-03 23:12 | 50.40933 | 5.28586 | 37198 ft | 408 kts | 223° |
| 2026-05-03 23:13 | 50.36906 | 5.22364 | 37226 ft | 407 kts | 223° |
| 2026-05-03 23:13 | 50.32899 | 5.16186 | 37218 ft | 407 kts | 223° |
| 2026-05-03 23:14 | 50.28850 | 5.09959 | 37212 ft | 407 kts | 223° |
| 2026-05-03 23:14 | 50.24836 | 5.03803 | 37214 ft | 407 kts | 223° |
| 2026-05-03 23:15 | 50.20815 | 4.97651 | 37201 ft | 407 kts | 223° |
| 2026-05-03 23:15 | 50.16772 | 4.91485 | 37185 ft | 407 kts | 223° |
| 2026-05-03 23:16 | 50.12911 | 4.85035 | 37155 ft | 409 kts | 227° |
| 2026-05-03 23:16 | 50.09248 | 4.78261 | 37145 ft | 409 kts | 227° |
| 2026-05-03 23:17 | 50.05581 | 4.71515 | 37121 ft | 409 kts | 227° |
| 2026-05-03 23:17 | 50.01904 | 4.64757 | 37080 ft | 410 kts | 227° |
| 2026-05-03 23:18 | 49.98252 | 4.58062 | 37102 ft | 409 kts | 227° |
| 2026-05-03 23:18 | 49.94379 | 4.51597 | 37092 ft | 408 kts | 225° |
| 2026-05-03 23:19 | 49.90506 | 4.45265 | 37080 ft | 408 kts | 225° |
| 2026-05-03 23:19 | 49.86609 | 4.38909 | 37096 ft | 408 kts | 225° |
| 2026-05-03 23:20 | 49.82686 | 4.32536 | 37122 ft | 407 kts | 224° |
| 2026-05-03 23:20 | 49.78789 | 4.26222 | 37176 ft | 407 kts | 224° |
| 2026-05-03 23:21 | 49.74901 | 4.19937 | 37198 ft | 407 kts | 224° |
| 2026-05-03 23:21 | 49.70998 | 4.13647 | 37255 ft | 406 kts | 224° |
| 2026-05-03 23:22 | 49.65132 | 4.04223 | 37248 ft | 407 kts | 224° |
| 2026-05-03 23:22 | 49.61210 | 3.97938 | 37279 ft | 406 kts | 224° |
| 2026-05-03 23:23 | 49.57295 | 3.91684 | 37276 ft | 407 kts | 224° |
| 2026-05-03 23:23 | 49.53373 | 3.85432 | 37325 ft | 406 kts | 224° |
| 2026-05-03 23:24 | 49.49463 | 3.79216 | 37316 ft | 406 kts | 224° |
| 2026-05-03 23:24 | 49.45549 | 3.73007 | 37299 ft | 406 kts | 224° |
| 2026-05-03 23:25 | 49.41640 | 3.66823 | 37300 ft | 406 kts | 224° |
| 2026-05-03 23:25 | 49.37692 | 3.60593 | 37251 ft | 406 kts | 224° |
| 2026-05-03 23:26 | 49.33763 | 3.54406 | 37203 ft | 406 kts | 224° |
| 2026-05-03 23:26 | 49.29821 | 3.48215 | 37168 ft | 407 kts | 224° |
| 2026-05-03 23:27 | 49.25897 | 3.42067 | 37186 ft | 407 kts | 224° |
| 2026-05-03 23:27 | 49.21950 | 3.35896 | 37177 ft | 406 kts | 224° |
| 2026-05-03 23:28 | 49.17989 | 3.29722 | 37134 ft | 407 kts | 223° |
| 2026-05-03 23:28 | 49.14044 | 3.23585 | 37138 ft | 406 kts | 223° |
| 2026-05-03 23:29 | 49.10090 | 3.17450 | 37142 ft | 406 kts | 223° |
| 2026-05-03 23:29 | 49.06146 | 3.11339 | 37099 ft | 406 kts | 223° |
| 2026-05-03 23:30 | 49.02185 | 3.05224 | 37104 ft | 406 kts | 223° |
| 2026-05-03 23:30 | 48.98227 | 2.99129 | 37066 ft | 406 kts | 223° |
| 2026-05-03 23:31 | 48.94279 | 2.93061 | 37077 ft | 406 kts | 224° |
| 2026-05-03 23:31 | 48.90314 | 2.86981 | 37059 ft | 406 kts | 223° |
| 2026-05-03 23:32 | 48.86327 | 2.80889 | 37087 ft | 407 kts | 224° |
| 2026-05-03 23:32 | 48.82492 | 2.74575 | 37098 ft | 408 kts | 228° |
| 2026-05-03 23:33 | 48.79095 | 2.67713 | 37080 ft | 411 kts | 233° |
| 2026-05-03 23:33 | 48.75855 | 2.60600 | 37131 ft | 411 kts | 233° |
| 2026-05-03 23:34 | 48.72628 | 2.53535 | 37153 ft | 411 kts | 233° |
| 2026-05-03 23:34 | 48.69384 | 2.46434 | 37138 ft | 411 kts | 233° |
| 2026-05-03 23:35 | 48.66134 | 2.39340 | 37146 ft | 411 kts | 233° |
| 2026-05-03 23:35 | 48.62870 | 2.32238 | 37174 ft | 411 kts | 232° |
| 2026-05-03 23:36 | 48.59272 | 2.25673 | 37167 ft | 409 kts | 222° |
| 2026-05-03 23:36 | 48.54773 | 2.20542 | 37179 ft | 407 kts | 210° |
| 2026-05-03 23:37 | 48.49603 | 2.17096 | 37212 ft | 407 kts | 198° |
| 2026-05-03 23:37 | 48.44115 | 2.15116 | 37276 ft | 407 kts | 194° |
| 2026-05-03 23:38 | 48.38580 | 2.13300 | 37275 ft | 408 kts | 194° |
| 2026-05-03 23:38 | 48.33011 | 2.11807 | 37297 ft | 409 kts | 189° |
| 2026-05-03 23:39 | 48.27341 | 2.11211 | 37317 ft | 411 kts | 184° |
| 2026-05-03 23:39 | 48.21615 | 2.11532 | 37315 ft | 414 kts | 178° |
| 2026-05-03 23:40 | 48.15892 | 2.12644 | 37301 ft | 416 kts | 176° |
| 2026-05-03 23:40 | 48.10171 | 2.13336 | 37333 ft | 412 kts | 181° |
| 2026-05-03 23:41 | 48.04413 | 2.13661 | 37297 ft | 414 kts | 181° |
| 2026-05-03 23:41 | 47.98698 | 2.14005 | 37306 ft | 414 kts | 181° |
| 2026-05-03 23:42 | 47.92967 | 2.14347 | 37337 ft | 414 kts | 181° |
| 2026-05-03 23:42 | 47.87218 | 2.14686 | 37362 ft | 414 kts | 181° |
| 2026-05-03 23:43 | 47.81470 | 2.15023 | 37379 ft | 414 kts | 181° |
| 2026-05-03 23:43 | 47.75738 | 2.15357 | 37470 ft | 413 kts | 181° |
| 2026-05-03 23:44 | 47.69991 | 2.15693 | 37535 ft | 413 kts | 181° |
| 2026-05-03 23:44 | 47.64258 | 2.16028 | 37535 ft | 413 kts | 181° |
| 2026-05-03 23:45 | 47.58511 | 2.16361 | 37577 ft | 413 kts | 181° |
| 2026-05-03 23:45 | 47.52816 | 2.16690 | 37571 ft | 414 kts | 181° |
| 2026-05-03 23:46 | 47.47037 | 2.17025 | 37558 ft | 415 kts | 181° |
| 2026-05-03 23:46 | 47.41279 | 2.17357 | 37604 ft | 414 kts | 181° |
| 2026-05-03 23:47 | 47.35572 | 2.17685 | 37614 ft | 414 kts | 181° |
| 2026-05-03 23:47 | 47.29821 | 2.18016 | 37638 ft | 414 kts | 181° |
| 2026-05-03 23:48 | 47.24078 | 2.18347 | 37629 ft | 414 kts | 181° |
| 2026-05-03 23:48 | 47.18309 | 2.18679 | 37668 ft | 414 kts | 181° |
| 2026-05-03 23:49 | 47.12597 | 2.19006 | 37655 ft | 414 kts | 181° |
| 2026-05-03 23:49 | 47.06841 | 2.18940 | 37662 ft | 411 kts | 187° |
| 2026-05-03 23:50 | 47.01166 | 2.18286 | 37650 ft | 411 kts | 187° |
| 2026-05-03 23:50 | 46.95504 | 2.17644 | 37640 ft | 411 kts | 187° |
| 2026-05-03 23:51 | 46.89788 | 2.16992 | 37650 ft | 411 kts | 188° |
| 2026-05-03 23:51 | 46.84087 | 2.16336 | 37680 ft | 411 kts | 188° |
| 2026-05-03 23:52 | 46.78403 | 2.15684 | 37701 ft | 411 kts | 188° |
| 2026-05-03 23:52 | 46.72724 | 2.15033 | 37714 ft | 412 kts | 188° |
| 2026-05-03 23:53 | 46.67014 | 2.14378 | 37731 ft | 412 kts | 188° |
| 2026-05-03 23:53 | 46.61290 | 2.13724 | 37744 ft | 412 kts | 188° |
| 2026-05-03 23:54 | 46.55605 | 2.13075 | 37762 ft | 412 kts | 187° |
| 2026-05-03 23:54 | 46.49889 | 2.12426 | 37776 ft | 412 kts | 188° |
| 2026-05-03 23:55 | 46.44156 | 2.11776 | 37780 ft | 412 kts | 188° |
| 2026-05-03 23:55 | 46.38459 | 2.11133 | 37791 ft | 412 kts | 188° |
| 2026-05-03 23:56 | 46.32752 | 2.10490 | 37808 ft | 412 kts | 188° |
| 2026-05-03 23:56 | 46.27047 | 2.09846 | 37835 ft | 412 kts | 188° |
| 2026-05-03 23:57 | 46.21390 | 2.08813 | 37815 ft | 410 kts | 193° |
| 2026-05-03 23:57 | 46.15860 | 2.06924 | 37810 ft | 408 kts | 199° |
| 2026-05-03 23:58 | 46.10519 | 2.04235 | 37790 ft | 407 kts | 203° |
| 2026-05-03 23:58 | 46.05252 | 2.01354 | 37779 ft | 407 kts | 203° |
| 2026-05-03 23:59 | 45.99938 | 1.98451 | 37751 ft | 407 kts | 202° |
| 2026-05-03 23:59 | 45.94684 | 1.95580 | 37725 ft | 408 kts | 202° |
| 2026-05-04 00:00 | 45.89373 | 1.92683 | 37705 ft | 408 kts | 203° |
| 2026-05-04 00:00 | 45.84082 | 1.89802 | 37786 ft | 407 kts | 203° |
| 2026-05-04 00:01 | 45.78793 | 1.86925 | 37811 ft | 407 kts | 203° |
| 2026-05-04 00:01 | 45.73508 | 1.84055 | 37805 ft | 407 kts | 203° |
| 2026-05-04 00:02 | 45.68255 | 1.81210 | 37862 ft | 406 kts | 203° |
| 2026-05-04 00:02 | 45.62951 | 1.78342 | 37828 ft | 407 kts | 203° |
| 2026-05-04 00:03 | 45.57671 | 1.75493 | 37832 ft | 407 kts | 203° |
| 2026-05-04 00:03 | 45.52370 | 1.72638 | 37829 ft | 407 kts | 203° |
| 2026-05-04 00:04 | 45.47076 | 1.69793 | 37833 ft | 408 kts | 203° |
| 2026-05-04 00:04 | 45.41781 | 1.66954 | 37811 ft | 408 kts | 203° |
| 2026-05-04 00:05 | 45.36506 | 1.64130 | 37837 ft | 407 kts | 203° |
| 2026-05-04 00:05 | 45.31182 | 1.61286 | 37837 ft | 407 kts | 203° |
| 2026-05-04 00:06 | 45.25903 | 1.58472 | 37823 ft | 408 kts | 203° |
| 2026-05-04 00:06 | 45.20594 | 1.55648 | 37820 ft | 408 kts | 203° |
| 2026-05-04 00:07 | 45.15291 | 1.52832 | 37858 ft | 407 kts | 203° |
| 2026-05-04 00:07 | 45.10000 | 1.50030 | 37818 ft | 407 kts | 203° |
| 2026-05-04 00:08 | 45.04683 | 1.47218 | 37831 ft | 407 kts | 203° |
| 2026-05-04 00:08 | 44.99384 | 1.44420 | 37798 ft | 408 kts | 203° |
| 2026-05-04 00:09 | 44.94072 | 1.41622 | 37793 ft | 408 kts | 203° |
| 2026-05-04 00:09 | 44.88784 | 1.38841 | 37783 ft | 407 kts | 203° |
| 2026-05-04 00:10 | 44.83467 | 1.36052 | 37808 ft | 407 kts | 203° |
| 2026-05-04 00:10 | 44.78155 | 1.33271 | 37821 ft | 408 kts | 202° |
| 2026-05-04 00:11 | 44.72858 | 1.30503 | 37861 ft | 407 kts | 202° |
| 2026-05-04 00:11 | 44.67536 | 1.27727 | 37873 ft | 408 kts | 203° |
| 2026-05-04 00:12 | 44.62224 | 1.24961 | 37907 ft | 408 kts | 203° |
| 2026-05-04 00:12 | 44.56902 | 1.22196 | 37922 ft | 408 kts | 203° |
| 2026-05-04 00:13 | 44.51592 | 1.19441 | 37939 ft | 408 kts | 202° |
| 2026-05-04 00:13 | 44.46289 | 1.16698 | 37951 ft | 408 kts | 203° |
| 2026-05-04 00:14 | 44.40958 | 1.13945 | 37973 ft | 408 kts | 203° |
| 2026-05-04 00:14 | 44.35643 | 1.11203 | 37996 ft | 407 kts | 203° |
| 2026-05-04 00:15 | 44.30336 | 1.08472 | 38001 ft | 407 kts | 202° |
| 2026-05-04 00:15 | 44.25021 | 1.05745 | 37989 ft | 408 kts | 203° |
| 2026-05-04 00:16 | 44.19698 | 1.03017 | 37994 ft | 408 kts | 203° |
| 2026-05-04 00:16 | 44.14408 | 1.00309 | 37988 ft | 408 kts | 203° |
| 2026-05-04 00:17 | 44.09082 | 0.97591 | 37988 ft | 408 kts | 203° |
| 2026-05-04 00:17 | 44.03756 | 0.94878 | 37986 ft | 408 kts | 203° |
| 2026-05-04 00:18 | 43.98452 | 0.92182 | 37990 ft | 409 kts | 203° |
| 2026-05-04 00:18 | 43.93091 | 0.89462 | 37984 ft | 408 kts | 203° |
| 2026-05-04 00:19 | 43.87650 | 0.87125 | 37990 ft | 410 kts | 198° |
| 2026-05-04 00:19 | 43.82074 | 0.85503 | 37989 ft | 412 kts | 195° |
| 2026-05-04 00:20 | 43.76461 | 0.83988 | 37989 ft | 412 kts | 195° |
| 2026-05-04 00:20 | 43.70835 | 0.82475 | 37992 ft | 411 kts | 195° |
| 2026-05-04 00:21 | 43.65224 | 0.80977 | 37993 ft | 411 kts | 195° |
| 2026-05-04 00:21 | 43.59620 | 0.79483 | 37993 ft | 412 kts | 195° |
| 2026-05-04 00:22 | 43.54019 | 0.77998 | 37993 ft | 412 kts | 195° |
| 2026-05-04 00:22 | 43.48397 | 0.76507 | 37988 ft | 412 kts | 195° |
| 2026-05-04 00:23 | 43.42766 | 0.75016 | 37995 ft | 411 kts | 195° |
| 2026-05-04 00:23 | 43.37161 | 0.73537 | 37988 ft | 411 kts | 195° |
| 2026-05-04 00:24 | 43.31550 | 0.72058 | 37992 ft | 411 kts | 195° |
| 2026-05-04 00:24 | 43.25919 | 0.70577 | 37991 ft | 410 kts | 195° |
| 2026-05-04 00:25 | 43.20321 | 0.69107 | 38000 ft | 410 kts | 195° |
| 2026-05-04 00:25 | 43.14753 | 0.67648 | 37997 ft | 410 kts | 195° |
| 2026-05-04 00:26 | 43.09169 | 0.66186 | 38003 ft | 410 kts | 195° |
| 2026-05-04 00:26 | 43.03537 | 0.64718 | 38004 ft | 410 kts | 195° |
| 2026-05-04 00:27 | 42.97968 | 0.63267 | 38017 ft | 410 kts | 195° |
| 2026-05-04 00:27 | 42.92356 | 0.61808 | 38024 ft | 409 kts | 195° |
| 2026-05-04 00:28 | 42.86760 | 0.60357 | 38029 ft | 410 kts | 195° |
| 2026-05-04 00:28 | 42.81185 | 0.58912 | 38041 ft | 410 kts | 195° |
| 2026-05-04 00:29 | 42.75553 | 0.57446 | 38045 ft | 409 kts | 196° |
| 2026-05-04 00:29 | 42.70100 | 0.55521 | 38044 ft | 405 kts | 201° |
| 2026-05-04 00:30 | 42.64833 | 0.52885 | 38043 ft | 403 kts | 206° |
| 2026-05-04 00:30 | 42.59769 | 0.49703 | 38047 ft | 402 kts | 208° |
| 2026-05-04 00:31 | 42.54693 | 0.46474 | 38050 ft | 402 kts | 208° |
| 2026-05-04 00:31 | 42.49625 | 0.43247 | 38051 ft | 403 kts | 208° |
| 2026-05-04 00:32 | 42.44578 | 0.40032 | 38047 ft | 402 kts | 208° |
| 2026-05-04 00:32 | 42.39543 | 0.36830 | 38055 ft | 402 kts | 208° |
| 2026-05-04 00:33 | 42.31940 | 0.32006 | 38054 ft | 403 kts | 207° |
| 2026-05-04 00:34 | 42.26871 | 0.28794 | 38054 ft | 403 kts | 207° |
| 2026-05-04 00:34 | 42.21812 | 0.25596 | 38045 ft | 404 kts | 207° |
| 2026-05-04 00:35 | 42.16698 | 0.22370 | 38048 ft | 404 kts | 207° |
| 2026-05-04 00:35 | 42.11586 | 0.19294 | 38054 ft | 405 kts | 204° |
| 2026-05-04 00:36 | 42.06251 | 0.16840 | 38049 ft | 407 kts | 199° |
| 2026-05-04 00:36 | 42.00731 | 0.15106 | 38047 ft | 409 kts | 194° |
| 2026-05-04 00:37 | 41.95073 | 0.14085 | 38046 ft | 412 kts | 191° |
| 2026-05-04 00:37 | 41.89404 | 0.13224 | 38044 ft | 412 kts | 191° |
| 2026-05-04 00:38 | 41.83714 | 0.12361 | 38035 ft | 411 kts | 191° |
| 2026-05-04 00:38 | 41.78020 | 0.11508 | 38028 ft | 411 kts | 191° |
| 2026-05-04 00:39 | 41.72343 | 0.10659 | 38023 ft | 412 kts | 191° |
| 2026-05-04 00:39 | 41.66676 | 0.09813 | 38023 ft | 411 kts | 191° |
| 2026-05-04 00:40 | 41.61000 | 0.08970 | 38019 ft | 411 kts | 191° |
| 2026-05-04 00:40 | 41.55310 | 0.08125 | 38018 ft | 410 kts | 191° |
| 2026-05-04 00:41 | 41.49647 | 0.07288 | 38012 ft | 411 kts | 191° |
| 2026-05-04 00:41 | 41.43983 | 0.06451 | 38014 ft | 411 kts | 191° |
| 2026-05-04 00:42 | 41.38280 | 0.05609 | 38015 ft | 410 kts | 191° |
| 2026-05-04 00:42 | 41.32621 | 0.04776 | 38004 ft | 411 kts | 191° |
| 2026-05-04 00:43 | 41.26926 | 0.03941 | 38001 ft | 411 kts | 191° |
| 2026-05-04 00:43 | 41.21295 | 0.03113 | 38006 ft | 410 kts | 191° |
| 2026-05-04 00:44 | 41.15609 | 0.02284 | 38003 ft | 410 kts | 191° |
| 2026-05-04 00:44 | 41.09962 | 0.01457 | 38007 ft | 410 kts | 191° |
| 2026-05-04 00:45 | 41.04289 | 0.00625 | 38009 ft | 410 kts | 191° |
| 2026-05-04 00:45 | 40.98646 | -0.00201 | 38014 ft | 409 kts | 191° |
| 2026-05-04 00:46 | 40.92988 | -0.01024 | 38009 ft | 409 kts | 191° |
| 2026-05-04 00:46 | 40.87322 | -0.01849 | 38023 ft | 410 kts | 191° |
| 2026-05-04 00:47 | 40.81643 | -0.02673 | 38028 ft | 410 kts | 191° |
| 2026-05-04 00:47 | 40.75967 | -0.03494 | 38032 ft | 411 kts | 191° |
| 2026-05-04 00:48 | 40.70253 | -0.04318 | 38038 ft | 411 kts | 191° |
| 2026-05-04 00:48 | 40.64605 | -0.05133 | 38033 ft | 410 kts | 191° |
| 2026-05-04 00:49 | 40.58941 | -0.06005 | 38038 ft | 408 kts | 193° |
| 2026-05-04 00:49 | 40.53408 | -0.07456 | 38043 ft | 406 kts | 198° |
| 2026-05-04 00:50 | 40.47986 | -0.09528 | 38040 ft | 405 kts | 200° |
| 2026-05-04 00:50 | 40.42611 | -0.11638 | 38049 ft | 405 kts | 200° |
| 2026-05-04 00:51 | 40.37187 | -0.13773 | 38055 ft | 405 kts | 200° |
| 2026-05-04 00:51 | 40.31780 | -0.15904 | 38057 ft | 405 kts | 200° |
| 2026-05-04 00:52 | 40.26349 | -0.18045 | 38061 ft | 406 kts | 200° |
| 2026-05-04 00:52 | 40.20945 | -0.20170 | 38065 ft | 406 kts | 200° |
| 2026-05-04 00:53 | 40.15531 | -0.22301 | 38058 ft | 407 kts | 200° |
| 2026-05-04 00:53 | 40.10154 | -0.24409 | 38061 ft | 407 kts | 200° |
| 2026-05-04 00:54 | 40.04715 | -0.26534 | 38062 ft | 407 kts | 200° |
| 2026-05-04 00:54 | 39.99309 | -0.28647 | 38058 ft | 407 kts | 200° |
| 2026-05-04 00:55 | 39.93868 | -0.30768 | 38056 ft | 407 kts | 200° |
| 2026-05-04 00:55 | 39.88458 | -0.32873 | 38058 ft | 407 kts | 200° |
| 2026-05-04 00:56 | 39.83040 | -0.34984 | 38051 ft | 408 kts | 200° |
| 2026-05-04 00:56 | 39.80314 | -0.36045 | 37785 ft | 410 kts | 200° |
| 2026-05-04 00:56 | 39.77570 | -0.37111 | 36918 ft | 410 kts | 200° |
| 2026-05-04 00:56 | 39.74867 | -0.38160 | 36182 ft | 410 kts | 199° |
| 2026-05-04 00:57 | 39.72147 | -0.39215 | 35548 ft | 410 kts | 199° |
| 2026-05-04 00:57 | 39.69410 | -0.40275 | 34908 ft | 410 kts | 199° |
| 2026-05-04 00:57 | 39.66689 | -0.41330 | 34243 ft | 409 kts | 199° |
| 2026-05-04 00:57 | 39.63962 | -0.42382 | 33491 ft | 409 kts | 199° |
| 2026-05-04 00:58 | 39.61232 | -0.43434 | 32742 ft | 409 kts | 199° |
| 2026-05-04 00:58 | 39.58516 | -0.44480 | 31995 ft | 409 kts | 199° |
| 2026-05-04 00:58 | 39.55834 | -0.45513 | 31262 ft | 408 kts | 199° |
| 2026-05-04 00:58 | 39.53124 | -0.46555 | 30523 ft | 408 kts | 199° |
| 2026-05-04 00:59 | 39.50400 | -0.47604 | 29785 ft | 407 kts | 198° |
| 2026-05-04 00:59 | 39.47690 | -0.48637 | 28993 ft | 406 kts | 198° |
| 2026-05-04 00:59 | 39.45004 | -0.49607 | 28202 ft | 398 kts | 198° |
| 2026-05-04 00:59 | 39.42361 | -0.50545 | 27412 ft | 390 kts | 198° |
| 2026-05-04 01:00 | 39.39781 | -0.51458 | 26643 ft | 391 kts | 198° |
| 2026-05-04 01:00 | 39.37151 | -0.52393 | 25857 ft | 392 kts | 198° |
| 2026-05-04 01:00 | 39.34525 | -0.53333 | 25074 ft | 394 kts | 200° |
| 2026-05-04 01:00 | 39.32039 | -0.54671 | 24293 ft | 392 kts | 210° |
| 2026-05-04 01:01 | 39.29626 | -0.56395 | 23501 ft | 393 kts | 212° |
| 2026-05-04 01:01 | 39.27276 | -0.58145 | 22740 ft | 395 kts | 212° |
| 2026-05-04 01:01 | 39.24898 | -0.59928 | 21982 ft | 396 kts | 213° |
| 2026-05-04 01:01 | 39.22538 | -0.61698 | 21229 ft | 398 kts | 212° |
| 2026-05-04 01:02 | 39.20139 | -0.63497 | 20488 ft | 399 kts | 213° |
| 2026-05-04 01:02 | 39.17744 | -0.65288 | 19731 ft | 400 kts | 212° |
| 2026-05-04 01:02 | 39.15336 | -0.67090 | 18974 ft | 402 kts | 212° |
| 2026-05-04 01:02 | 39.12936 | -0.68887 | 18246 ft | 403 kts | 212° |
| 2026-05-04 01:03 | 39.10533 | -0.70689 | 17511 ft | 403 kts | 212° |
| 2026-05-04 01:03 | 39.08096 | -0.72505 | 16759 ft | 404 kts | 212° |
| 2026-05-04 01:03 | 39.05663 | -0.74310 | 16027 ft | 404 kts | 212° |
| 2026-05-04 01:03 | 39.03253 | -0.76091 | 15290 ft | 404 kts | 212° |
| 2026-05-04 01:04 | 39.00805 | -0.77883 | 14569 ft | 404 kts | 212° |
| 2026-05-04 01:04 | 38.98379 | -0.79639 | 13972 ft | 399 kts | 212° |
| 2026-05-04 01:04 | 38.95986 | -0.81363 | 13627 ft | 388 kts | 212° |
| 2026-05-04 01:04 | 38.93686 | -0.83012 | 13361 ft | 378 kts | 212° |
| 2026-05-04 01:05 | 38.91399 | -0.84647 | 13059 ft | 368 kts | 212° |
| 2026-05-04 01:05 | 38.89185 | -0.86236 | 12763 ft | 358 kts | 212° |
| 2026-05-04 01:05 | 38.87038 | -0.87778 | 12473 ft | 350 kts | 212° |
| 2026-05-04 01:05 | 38.84963 | -0.89276 | 12194 ft | 342 kts | 212° |
| 2026-05-04 01:06 | 38.82910 | -0.90765 | 11946 ft | 333 kts | 212° |
| 2026-05-04 01:06 | 38.80908 | -0.92222 | 11698 ft | 325 kts | 212° |
| 2026-05-04 01:06 | 38.78982 | -0.93631 | 11450 ft | 318 kts | 212° |
| 2026-05-04 01:06 | 38.77081 | -0.95026 | 11201 ft | 311 kts | 212° |
| 2026-05-04 01:07 | 38.75231 | -0.96389 | 10954 ft | 304 kts | 212° |
| 2026-05-04 01:07 | 38.73421 | -0.97729 | 10751 ft | 296 kts | 212° |
| 2026-05-04 01:07 | 38.71647 | -0.99045 | 10599 ft | 287 kts | 212° |
| 2026-05-04 01:07 | 38.69960 | -1.00296 | 10418 ft | 280 kts | 212° |
| 2026-05-04 01:08 | 38.68285 | -1.01539 | 10209 ft | 274 kts | 212° |
| 2026-05-04 01:08 | 38.66658 | -1.02748 | 9946 ft | 270 kts | 212° |
| 2026-05-04 01:08 | 38.65043 | -1.03955 | 9650 ft | 268 kts | 212° |
| 2026-05-04 01:08 | 38.63452 | -1.05153 | 9359 ft | 265 kts | 212° |
| 2026-05-04 01:09 | 38.61857 | -1.06363 | 9058 ft | 263 kts | 212° |
| 2026-05-04 01:09 | 38.60305 | -1.07547 | 8763 ft | 261 kts | 212° |
| 2026-05-04 01:09 | 38.58704 | -1.08652 | 8458 ft | 261 kts | 201° |
| 2026-05-04 01:09 | 38.56966 | -1.09236 | 8170 ft | 262 kts | 193° |
| 2026-05-04 01:10 | 38.55156 | -1.09664 | 7871 ft | 262 kts | 191° |
| 2026-05-04 01:10 | 38.53379 | -1.10058 | 7578 ft | 261 kts | 191° |
| 2026-05-04 01:10 | 38.51584 | -1.10455 | 7283 ft | 260 kts | 191° |
| 2026-05-04 01:10 | 38.49823 | -1.10853 | 6992 ft | 259 kts | 191° |
| 2026-05-04 01:11 | 38.48060 | -1.11262 | 6696 ft | 258 kts | 191° |
| 2026-05-04 01:11 | 38.46294 | -1.11682 | 6402 ft | 258 kts | 191° |
| 2026-05-04 01:11 | 38.44518 | -1.12089 | 6096 ft | 257 kts | 186° |
| 2026-05-04 01:11 | 38.42770 | -1.11840 | 5781 ft | 257 kts | 158° |
| 2026-05-04 01:12 | 38.41231 | -1.10662 | 5495 ft | 257 kts | 144° |
| 2026-05-04 01:12 | 38.39828 | -1.09271 | 5200 ft | 256 kts | 142° |
| 2026-05-04 01:12 | 38.38450 | -1.07852 | 4906 ft | 254 kts | 141° |
| 2026-05-04 01:12 | 38.37068 | -1.06428 | 4615 ft | 252 kts | 141° |
| 2026-05-04 01:13 | 38.35885 | -1.04846 | 4357 ft | 249 kts | 125° |
| 2026-05-04 01:13 | 38.34990 | -1.02967 | 4104 ft | 246 kts | 115° |
| 2026-05-04 01:13 | 38.34427 | -1.00934 | 3854 ft | 243 kts | 103° |
| 2026-05-04 01:13 | 38.34140 | -0.98843 | 3606 ft | 240 kts | 97° |
| 2026-05-04 01:14 | 38.33925 | -0.96734 | 3354 ft | 238 kts | 97° |
| 2026-05-04 01:14 | 38.33698 | -0.94661 | 3113 ft | 235 kts | 98° |
| 2026-05-04 01:14 | 38.33451 | -0.92664 | 3037 ft | 224 kts | 99° |
| 2026-05-04 01:14 | 38.33192 | -0.90732 | 3030 ft | 217 kts | 100° |
| 2026-05-04 01:15 | 38.32931 | -0.88875 | 3025 ft | 211 kts | 100° |
| 2026-05-04 01:15 | 38.32677 | -0.87111 | 3088 ft | 190 kts | 100° |
| 2026-05-04 01:15 | 38.32442 | -0.85500 | 3060 ft | 181 kts | 101° |
| 2026-05-04 01:15 | 38.32225 | -0.84018 | 3038 ft | 161 kts | 100° |
| 2026-05-04 01:16 | 38.32022 | -0.82624 | 3041 ft | 160 kts | 100° |
| 2026-05-04 01:16 | 38.31819 | -0.81229 | 3036 ft | 160 kts | 100° |
| 2026-05-04 01:16 | 38.31618 | -0.79845 | 3035 ft | 160 kts | 100° |
| 2026-05-04 01:16 | 38.31416 | -0.78449 | 3034 ft | 159 kts | 100° |
| 2026-05-04 01:17 | 38.31217 | -0.77063 | 3034 ft | 160 kts | 100° |
| 2026-05-04 01:17 | 38.31017 | -0.75668 | 2917 ft | 160 kts | 100° |
| 2026-05-04 01:17 | 38.30827 | -0.74333 | 2685 ft | 147 kts | 99° |
| 2026-05-04 01:17 | 38.30653 | -0.73071 | 2491 ft | 144 kts | 99° |
| 2026-05-04 01:18 | 38.30476 | -0.71819 | 2319 ft | 144 kts | 99° |
| 2026-05-04 01:18 | 38.30298 | -0.70565 | 2142 ft | 143 kts | 99° |
| 2026-05-04 01:18 | 38.30119 | -0.69313 | 1962 ft | 143 kts | 99° |
| 2026-05-04 01:18 | 38.29943 | -0.68076 | 1780 ft | 143 kts | 99° |
| 2026-05-04 01:19 | 38.29767 | -0.66837 | 1594 ft | 143 kts | 100° |
| 2026-05-04 01:19 | 38.29566 | -0.65591 | 1407 ft | 146 kts | 101° |
| 2026-05-04 01:19 | 38.29355 | -0.64312 | 1268 ft | 148 kts | 100° |
| 2026-05-04 01:19 | 38.29168 | -0.63040 | 1070 ft | 145 kts | 98° |
| 2026-05-04 01:20 | 38.29035 | -0.61778 | 849 ft | 143 kts | 97° |
| 2026-05-04 01:20 | 38.28869 | -0.60519 | 614 ft | 144 kts | 98° |
| 2026-05-04 01:20 | 38.28701 | -0.59269 | 422 ft | 143 kts | 99° |
| 2026-05-04 01:20 | 38.28524 | -0.58037 | 259 ft | 142 kts | 100° |
| 2026-05-04 01:21 | 38.28360 | -0.56799 | 127 ft | 140 kts | 99° |
| 2026-05-04 01:21 | 38.28209 | -0.55784 | 96 ft | 87 kts | 100° |
| 2026-05-04 01:21 | 38.28135 | -0.55264 | 83 ft | 37 kts | 102° |
| 2026-05-04 01:21 | 38.28132 | -0.54949 | 71 ft | 30 kts | 78° |
| 2026-05-04 01:22 | 38.28220 | -0.54721 | 59 ft | 19 kts | 4° |
| 2026-05-04 01:22 | 38.28261 | -0.54826 | 63 ft | 10 kts | 285° |
| 2026-05-04 01:22 | 38.28278 | -0.54909 | 66 ft | 8 kts | 283° |
| 2026-05-04 01:22 | 38.28295 | -0.55020 | 72 ft | 13 kts | 279° |
| 2026-05-04 01:23 | 38.28307 | -0.55120 | 78 ft | 9 kts | 278° |
| 2026-05-04 01:23 | 38.28346 | -0.55183 | 81 ft | 9 kts | 356° |
| 2026-05-04 01:23 | 38.28415 | -0.55179 | 81 ft | 10 kts | 333° |
| 2026-05-04 01:23 | 38.28445 | -0.55220 | 83 ft | 3 kts | 311° |
| 2026-05-04 01:24 | 38.28469 | -0.55237 | 84 ft | 4 kts | 345° |
| 2026-05-04 01:24 | 38.28507 | -0.55236 | 84 ft | 4 kts | 13° |
| 2026-05-04 01:24 | 38.28518 | -0.55232 | 84 ft | 0 kts | 12° |